sensor_id;sensor_type;location;lat;lon;timestamp;temperature;humidity
22974;DHT22;11653;50.848;4.584;2023-03-04T00:00:09;7.50;99.90
22974;DHT22;11653;50.848;4.584;2023-03-04T00:02:35;7.50;99.90
22974;DHT22;11653;50.848;4.584;2023-03-04T00:05:01;7.50;99.90
22974;DHT22;11653;50.848;4.584;2023-03-04T00:07:28;7.50;99.90
22974;DHT22;11653;50.848;4.584;2023-03-04T00:09:54;7.50;99.90
22974;DHT22;11653;50.848;4.584;2023-03-04T00:12:19;7.40;99.90
22974;DHT22;11653;50.848;4.584;2023-03-04T00:14:45;7.30;99.90
22974;DHT22;11653;50.848;4.584;2023-03-04T00:17:10;7.30;99.90
22974;DHT22;11653;50.848;4.584;2023-03-04T00:19:36;7.40;99.90
22974;DHT22;11653;50.848;4.584;2023-03-04T00:22:03;7.40;99.90
22974;DHT22;11653;50.848;4.584;2023-03-04T00:24:29;7.50;99.90
22974;DHT22;11653;50.848;4.584;2023-03-04T00:26:55;7.50;99.90
22974;DHT22;11653;50.848;4.584;2023-03-04T00:29:20;7.40;99.90
22974;DHT22;11653;50.848;4.584;2023-03-04T00:31:46;7.40;99.90
22974;DHT22;11653;50.848;4.584;2023-03-04T00:34:12;7.30;99.90
22974;DHT22;11653;50.848;4.584;2023-03-04T00:36:38;7.30;99.90
22974;DHT22;11653;50.848;4.584;2023-03-04T00:39:04;7.40;99.90
22974;DHT22;11653;50.848;4.584;2023-03-04T00:41:30;7.40;99.90
22974;DHT22;11653;50.848;4.584;2023-03-04T00:43:55;7.50;99.90
22974;DHT22;11653;50.848;4.584;2023-03-04T00:46:21;7.30;99.90
22974;DHT22;11653;50.848;4.584;2023-03-04T00:48:47;7.20;99.90
22974;DHT22;11653;50.848;4.584;2023-03-04T00:51:12;7.30;99.90
22974;DHT22;11653;50.848;4.584;2023-03-04T00:53:38;7.30;99.90
22974;DHT22;11653;50.848;4.584;2023-03-04T00:56:04;7.30;99.90
22974;DHT22;11653;50.848;4.584;2023-03-04T00:58:30;7.40;99.90
22974;DHT22;11653;50.848;4.584;2023-03-04T01:00:56;7.50;99.90
22974;DHT22;11653;50.848;4.584;2023-03-04T01:03:21;7.50;99.90
22974;DHT22;11653;50.848;4.584;2023-03-04T01:05:47;7.50;99.90
22974;DHT22;11653;50.848;4.584;2023-03-04T01:08:12;7.40;99.90
22974;DHT22;11653;50.848;4.584;2023-03-04T01:10:38;7.40;99.90
22974;DHT22;11653;50.848;4.584;2023-03-04T01:13:04;7.40;99.90
22974;DHT22;11653;50.848;4.584;2023-03-04T01:15:29;7.40;99.90
22974;DHT22;11653;50.848;4.584;2023-03-04T01:17:55;7.40;99.90
22974;DHT22;11653;50.848;4.584;2023-03-04T01:20:21;7.40;99.90
22974;DHT22;11653;50.848;4.584;2023-03-04T01:22:46;7.30;99.90
22974;DHT22;11653;50.848;4.584;2023-03-04T01:25:12;7.30;99.90
22974;DHT22;11653;50.848;4.584;2023-03-04T01:27:38;7.40;99.90
22974;DHT22;11653;50.848;4.584;2023-03-04T01:30:04;7.40;99.90
22974;DHT22;11653;50.848;4.584;2023-03-04T01:32:30;7.40;99.90
22974;DHT22;11653;50.848;4.584;2023-03-04T01:34:55;7.40;99.90
22974;DHT22;11653;50.848;4.584;2023-03-04T01:37:21;7.50;99.90
22974;DHT22;11653;50.848;4.584;2023-03-04T01:39:47;7.50;99.90
22974;DHT22;11653;50.848;4.584;2023-03-04T01:42:23;7.50;99.90
22974;DHT22;11653;50.848;4.584;2023-03-04T01:44:51;7.50;99.90
22974;DHT22;11653;50.848;4.584;2023-03-04T01:47:18;7.40;99.90
22974;DHT22;11653;50.848;4.584;2023-03-04T01:49:45;7.40;99.90
22974;DHT22;11653;50.848;4.584;2023-03-04T01:52:13;7.40;99.90
22974;DHT22;11653;50.848;4.584;2023-03-04T01:54:39;7.40;99.90
22974;DHT22;11653;50.848;4.584;2023-03-04T01:57:16;7.40;99.90
22974;DHT22;11653;50.848;4.584;2023-03-04T01:59:43;7.40;99.90
22974;DHT22;11653;50.848;4.584;2023-03-04T02:02:09;7.50;99.90
22974;DHT22;11653;50.848;4.584;2023-03-04T02:04:35;7.50;99.90
22974;DHT22;11653;50.848;4.584;2023-03-04T02:07:01;7.50;99.90
22974;DHT22;11653;50.848;4.584;2023-03-04T02:09:29;7.50;99.90
22974;DHT22;11653;50.848;4.584;2023-03-04T02:11:55;7.50;99.90
22974;DHT22;11653;50.848;4.584;2023-03-04T02:14:22;7.60;99.90
22974;DHT22;11653;50.848;4.584;2023-03-04T02:16:48;7.60;99.90
22974;DHT22;11653;50.848;4.584;2023-03-04T02:22:02;7.60;99.90
22974;DHT22;11653;50.848;4.584;2023-03-04T02:26:55;7.70;99.90
22974;DHT22;11653;50.848;4.584;2023-03-04T02:29:21;7.70;99.90
22974;DHT22;11653;50.848;4.584;2023-03-04T02:31:49;7.70;99.90
22974;DHT22;11653;50.848;4.584;2023-03-04T02:34:21;7.70;99.90
22974;DHT22;11653;50.848;4.584;2023-03-04T02:36:50;7.70;99.90
22974;DHT22;11653;50.848;4.584;2023-03-04T02:41:50;7.60;99.90
22974;DHT22;11653;50.848;4.584;2023-03-04T02:44:25;7.60;99.90
22974;DHT22;11653;50.848;4.584;2023-03-04T02:46:52;7.60;99.90
22974;DHT22;11653;50.848;4.584;2023-03-04T02:49:18;7.60;99.90
22974;DHT22;11653;50.848;4.584;2023-03-04T02:51:44;7.60;99.90
22974;DHT22;11653;50.848;4.584;2023-03-04T02:54:19;7.50;99.90
22974;DHT22;11653;50.848;4.584;2023-03-04T02:56:50;7.50;99.90
22974;DHT22;11653;50.848;4.584;2023-03-04T02:59:17;7.50;99.90
22974;DHT22;11653;50.848;4.584;2023-03-04T03:01:43;7.50;99.90
22974;DHT22;11653;50.848;4.584;2023-03-04T03:04:09;7.50;99.90
22974;DHT22;11653;50.848;4.584;2023-03-04T03:06:35;7.50;99.90
22974;DHT22;11653;50.848;4.584;2023-03-04T03:09:01;7.50;99.90
22974;DHT22;11653;50.848;4.584;2023-03-04T03:11:27;7.50;99.90
22974;DHT22;11653;50.848;4.584;2023-03-04T03:13:52;7.50;99.90
22974;DHT22;11653;50.848;4.584;2023-03-04T03:16:18;7.50;99.90
22974;DHT22;11653;50.848;4.584;2023-03-04T03:18:43;7.50;99.90
22974;DHT22;11653;50.848;4.584;2023-03-04T03:21:09;7.50;99.90
22974;DHT22;11653;50.848;4.584;2023-03-04T03:23:35;7.60;99.90
22974;DHT22;11653;50.848;4.584;2023-03-04T03:26:01;7.60;99.90
22974;DHT22;11653;50.848;4.584;2023-03-04T03:28:27;7.60;99.90
22974;DHT22;11653;50.848;4.584;2023-03-04T03:30:53;7.60;99.90
22974;DHT22;11653;50.848;4.584;2023-03-04T03:33:19;7.70;99.90
22974;DHT22;11653;50.848;4.584;2023-03-04T03:35:45;7.60;99.90
22974;DHT22;11653;50.848;4.584;2023-03-04T03:38:11;7.70;99.90
22974;DHT22;11653;50.848;4.584;2023-03-04T03:40:36;7.70;99.90
22974;DHT22;11653;50.848;4.584;2023-03-04T03:43:02;7.70;99.90
22974;DHT22;11653;50.848;4.584;2023-03-04T03:45:28;7.60;99.90
22974;DHT22;11653;50.848;4.584;2023-03-04T03:47:54;7.50;99.90
22974;DHT22;11653;50.848;4.584;2023-03-04T03:50:19;7.50;99.90
22974;DHT22;11653;50.848;4.584;2023-03-04T03:52:45;7.70;99.90
22974;DHT22;11653;50.848;4.584;2023-03-04T03:55:11;7.60;99.90
22974;DHT22;11653;50.848;4.584;2023-03-04T03:57:36;7.70;99.90
22974;DHT22;11653;50.848;4.584;2023-03-04T04:00:03;7.60;99.90
22974;DHT22;11653;50.848;4.584;2023-03-04T04:02:29;7.70;99.90
22974;DHT22;11653;50.848;4.584;2023-03-04T04:04:55;7.70;99.90
22974;DHT22;11653;50.848;4.584;2023-03-04T04:07:20;7.60;99.90
22974;DHT22;11653;50.848;4.584;2023-03-04T04:09:46;7.70;99.90
22974;DHT22;11653;50.848;4.584;2023-03-04T04:12:17;7.70;99.90
22974;DHT22;11653;50.848;4.584;2023-03-04T04:14:43;7.70;99.90
22974;DHT22;11653;50.848;4.584;2023-03-04T04:17:09;7.70;99.90
22974;DHT22;11653;50.848;4.584;2023-03-04T04:19:36;7.70;99.90
22974;DHT22;11653;50.848;4.584;2023-03-04T04:22:02;7.70;99.90
22974;DHT22;11653;50.848;4.584;2023-03-04T04:24:28;7.70;99.90
22974;DHT22;11653;50.848;4.584;2023-03-04T04:26:54;7.60;99.90
22974;DHT22;11653;50.848;4.584;2023-03-04T04:29:19;7.60;99.90
22974;DHT22;11653;50.848;4.584;2023-03-04T04:31:47;7.50;99.90
22974;DHT22;11653;50.848;4.584;2023-03-04T04:34:13;7.50;99.90
22974;DHT22;11653;50.848;4.584;2023-03-04T04:36:38;7.30;99.90
22974;DHT22;11653;50.848;4.584;2023-03-04T04:39:04;7.30;99.90
22974;DHT22;11653;50.848;4.584;2023-03-04T04:41:35;7.40;99.90
22974;DHT22;11653;50.848;4.584;2023-03-04T04:44:01;7.40;99.90
22974;DHT22;11653;50.848;4.584;2023-03-04T04:46:27;7.50;99.90
22974;DHT22;11653;50.848;4.584;2023-03-04T04:48:52;7.50;99.90
22974;DHT22;11653;50.848;4.584;2023-03-04T04:51:18;7.50;99.90
22974;DHT22;11653;50.848;4.584;2023-03-04T04:53:44;7.50;99.90
22974;DHT22;11653;50.848;4.584;2023-03-04T04:56:12;7.60;99.90
22974;DHT22;11653;50.848;4.584;2023-03-04T04:58:38;7.50;99.90
22974;DHT22;11653;50.848;4.584;2023-03-04T05:01:04;7.60;99.90
22974;DHT22;11653;50.848;4.584;2023-03-04T05:03:31;7.50;99.90
22974;DHT22;11653;50.848;4.584;2023-03-04T05:05:57;7.50;99.90
22974;DHT22;11653;50.848;4.584;2023-03-04T05:08:22;7.50;99.90
22974;DHT22;11653;50.848;4.584;2023-03-04T05:10:48;7.60;99.90
22974;DHT22;11653;50.848;4.584;2023-03-04T05:13:14;7.60;99.90
22974;DHT22;11653;50.848;4.584;2023-03-04T05:15:39;7.60;99.90
22974;DHT22;11653;50.848;4.584;2023-03-04T05:18:05;7.60;99.90
22974;DHT22;11653;50.848;4.584;2023-03-04T05:20:31;7.70;99.90
22974;DHT22;11653;50.848;4.584;2023-03-04T05:22:56;7.60;99.90
22974;DHT22;11653;50.848;4.584;2023-03-04T05:25:22;7.70;99.90
22974;DHT22;11653;50.848;4.584;2023-03-04T05:27:48;7.70;99.90
22974;DHT22;11653;50.848;4.584;2023-03-04T05:30:13;7.70;99.90
22974;DHT22;11653;50.848;4.584;2023-03-04T05:32:39;7.70;99.90
22974;DHT22;11653;50.848;4.584;2023-03-04T05:35:05;7.70;99.90
22974;DHT22;11653;50.848;4.584;2023-03-04T05:37:31;7.70;99.90
22974;DHT22;11653;50.848;4.584;2023-03-04T05:39:57;7.80;99.90
22974;DHT22;11653;50.848;4.584;2023-03-04T05:42:22;7.70;99.90
22974;DHT22;11653;50.848;4.584;2023-03-04T05:44:48;7.80;99.90
22974;DHT22;11653;50.848;4.584;2023-03-04T05:47:13;7.70;99.90
22974;DHT22;11653;50.848;4.584;2023-03-04T05:49:39;7.70;99.90
22974;DHT22;11653;50.848;4.584;2023-03-04T05:52:06;7.70;99.90
22974;DHT22;11653;50.848;4.584;2023-03-04T05:54:31;7.70;99.90
22974;DHT22;11653;50.848;4.584;2023-03-04T05:56:57;7.70;99.90
22974;DHT22;11653;50.848;4.584;2023-03-04T05:59:23;7.70;99.90
22974;DHT22;11653;50.848;4.584;2023-03-04T06:01:48;7.70;99.90
22974;DHT22;11653;50.848;4.584;2023-03-04T06:04:14;7.70;99.90
22974;DHT22;11653;50.848;4.584;2023-03-04T06:06:40;7.70;99.90
22974;DHT22;11653;50.848;4.584;2023-03-04T06:09:06;7.70;99.90
22974;DHT22;11653;50.848;4.584;2023-03-04T06:11:31;7.70;99.90
22974;DHT22;11653;50.848;4.584;2023-03-04T06:13:57;7.70;99.90
22974;DHT22;11653;50.848;4.584;2023-03-04T06:16:23;7.70;99.90
22974;DHT22;11653;50.848;4.584;2023-03-04T06:18:48;7.70;99.90
22974;DHT22;11653;50.848;4.584;2023-03-04T06:21:14;7.70;99.90
22974;DHT22;11653;50.848;4.584;2023-03-04T06:23:40;7.70;99.90
22974;DHT22;11653;50.848;4.584;2023-03-04T06:26:06;7.70;99.90
22974;DHT22;11653;50.848;4.584;2023-03-04T06:28:36;7.70;99.90
22974;DHT22;11653;50.848;4.584;2023-03-04T06:31:02;7.80;99.90
22974;DHT22;11653;50.848;4.584;2023-03-04T06:33:27;7.80;99.90
22974;DHT22;11653;50.848;4.584;2023-03-04T06:35:54;7.70;99.90
22974;DHT22;11653;50.848;4.584;2023-03-04T06:38:20;7.80;99.90
22974;DHT22;11653;50.848;4.584;2023-03-04T06:40:45;7.80;99.90
22974;DHT22;11653;50.848;4.584;2023-03-04T06:43:11;7.80;99.90
22974;DHT22;11653;50.848;4.584;2023-03-04T06:45:37;7.80;99.90
22974;DHT22;11653;50.848;4.584;2023-03-04T06:48:03;7.80;99.90
22974;DHT22;11653;50.848;4.584;2023-03-04T06:50:29;7.80;99.90
22974;DHT22;11653;50.848;4.584;2023-03-04T06:52:56;7.80;99.90
22974;DHT22;11653;50.848;4.584;2023-03-04T06:55:22;7.80;99.90
22974;DHT22;11653;50.848;4.584;2023-03-04T06:57:47;7.90;99.90
22974;DHT22;11653;50.848;4.584;2023-03-04T07:00:14;7.80;99.90
22974;DHT22;11653;50.848;4.584;2023-03-04T07:02:40;7.80;99.90
22974;DHT22;11653;50.848;4.584;2023-03-04T07:05:06;7.80;99.90
22974;DHT22;11653;50.848;4.584;2023-03-04T07:07:32;7.90;99.90
22974;DHT22;11653;50.848;4.584;2023-03-04T07:09:58;7.90;99.90
22974;DHT22;11653;50.848;4.584;2023-03-04T07:12:23;7.80;99.90
22974;DHT22;11653;50.848;4.584;2023-03-04T07:14:49;7.80;99.90
22974;DHT22;11653;50.848;4.584;2023-03-04T07:17:14;7.80;99.90
22974;DHT22;11653;50.848;4.584;2023-03-04T07:19:40;7.80;99.90
22974;DHT22;11653;50.848;4.584;2023-03-04T07:22:06;7.80;99.90
22974;DHT22;11653;50.848;4.584;2023-03-04T07:24:32;7.90;99.90
22974;DHT22;11653;50.848;4.584;2023-03-04T07:26:57;7.80;99.90
22974;DHT22;11653;50.848;4.584;2023-03-04T07:29:23;7.80;99.90
22974;DHT22;11653;50.848;4.584;2023-03-04T07:31:49;7.80;99.90
22974;DHT22;11653;50.848;4.584;2023-03-04T07:34:15;7.80;99.90
22974;DHT22;11653;50.848;4.584;2023-03-04T07:36:41;7.90;99.90
22974;DHT22;11653;50.848;4.584;2023-03-04T07:39:08;7.90;99.90
22974;DHT22;11653;50.848;4.584;2023-03-04T07:41:35;8.00;99.90
22974;DHT22;11653;50.848;4.584;2023-03-04T07:44:03;8.00;99.90
22974;DHT22;11653;50.848;4.584;2023-03-04T07:46:29;8.00;99.90
22974;DHT22;11653;50.848;4.584;2023-03-04T07:48:55;8.00;99.90
22974;DHT22;11653;50.848;4.584;2023-03-04T07:51:23;8.00;99.90
22974;DHT22;11653;50.848;4.584;2023-03-04T07:53:51;8.10;99.90
22974;DHT22;11653;50.848;4.584;2023-03-04T07:56:23;8.20;99.90
22974;DHT22;11653;50.848;4.584;2023-03-04T07:58:49;8.30;99.90
22974;DHT22;11653;50.848;4.584;2023-03-04T08:01:20;8.30;99.90
22974;DHT22;11653;50.848;4.584;2023-03-04T08:03:46;8.30;99.90
22974;DHT22;11653;50.848;4.584;2023-03-04T08:06:14;8.30;99.90
22974;DHT22;11653;50.848;4.584;2023-03-04T08:08:40;8.40;99.90
22974;DHT22;11653;50.848;4.584;2023-03-04T08:11:16;8.40;99.90
22974;DHT22;11653;50.848;4.584;2023-03-04T08:13:43;8.40;99.90
22974;DHT22;11653;50.848;4.584;2023-03-04T08:16:12;8.50;99.90
22974;DHT22;11653;50.848;4.584;2023-03-04T08:18:43;8.50;99.90
22974;DHT22;11653;50.848;4.584;2023-03-04T08:21:14;8.50;99.90
22974;DHT22;11653;50.848;4.584;2023-03-04T08:23:40;8.50;99.90
22974;DHT22;11653;50.848;4.584;2023-03-04T08:26:12;8.50;99.90
22974;DHT22;11653;50.848;4.584;2023-03-04T08:28:38;8.60;99.90
22974;DHT22;11653;50.848;4.584;2023-03-04T08:31:04;8.60;99.90
22974;DHT22;11653;50.848;4.584;2023-03-04T08:33:31;8.60;99.90
22974;DHT22;11653;50.848;4.584;2023-03-04T08:35:57;8.50;99.90
22974;DHT22;11653;50.848;4.584;2023-03-04T08:38:25;8.50;99.90
22974;DHT22;11653;50.848;4.584;2023-03-04T08:40:52;8.50;99.90
22974;DHT22;11653;50.848;4.584;2023-03-04T08:43:18;8.60;99.90
22974;DHT22;11653;50.848;4.584;2023-03-04T08:45:43;8.60;99.90
22974;DHT22;11653;50.848;4.584;2023-03-04T08:48:10;8.50;99.90
22974;DHT22;11653;50.848;4.584;2023-03-04T08:50:36;8.40;99.90
22974;DHT22;11653;50.848;4.584;2023-03-04T08:53:01;8.50;99.90
22974;DHT22;11653;50.848;4.584;2023-03-04T08:55:27;8.60;99.90
22974;DHT22;11653;50.848;4.584;2023-03-04T08:57:52;8.80;99.90
22974;DHT22;11653;50.848;4.584;2023-03-04T09:00:18;9.40;99.90
22974;DHT22;11653;50.848;4.584;2023-03-04T09:02:45;10.20;99.90
22974;DHT22;11653;50.848;4.584;2023-03-04T09:05:11;11.00;99.90
22974;DHT22;11653;50.848;4.584;2023-03-04T09:07:36;11.40;99.90
22974;DHT22;11653;50.848;4.584;2023-03-04T09:10:03;11.60;99.90
22974;DHT22;11653;50.848;4.584;2023-03-04T09:12:29;11.60;99.90
22974;DHT22;11653;50.848;4.584;2023-03-04T09:14:55;11.40;99.90
22974;DHT22;11653;50.848;4.584;2023-03-04T09:17:20;11.10;99.90
22974;DHT22;11653;50.848;4.584;2023-03-04T09:19:46;11.10;99.90
22974;DHT22;11653;50.848;4.584;2023-03-04T09:22:12;11.00;99.90
22974;DHT22;11653;50.848;4.584;2023-03-04T09:24:37;10.80;99.90
22974;DHT22;11653;50.848;4.584;2023-03-04T09:27:03;10.60;99.90
22974;DHT22;11653;50.848;4.584;2023-03-04T09:29:29;10.30;99.90
22974;DHT22;11653;50.848;4.584;2023-03-04T09:31:54;10.20;99.90
22974;DHT22;11653;50.848;4.584;2023-03-04T09:34:20;10.20;99.90
22974;DHT22;11653;50.848;4.584;2023-03-04T09:36:46;10.10;99.90
22974;DHT22;11653;50.848;4.584;2023-03-04T09:39:12;10.30;99.90
22974;DHT22;11653;50.848;4.584;2023-03-04T09:41:41;10.50;99.90
22974;DHT22;11653;50.848;4.584;2023-03-04T09:46:49;11.00;99.90
22974;DHT22;11653;50.848;4.584;2023-03-04T09:49:15;11.70;99.90
22974;DHT22;11653;50.848;4.584;2023-03-04T09:52:03;12.70;99.90
22974;DHT22;11653;50.848;4.584;2023-03-04T09:54:49;14.10;99.90
22974;DHT22;11653;50.848;4.584;2023-03-04T10:00:14;17.20;98.30
22974;DHT22;11653;50.848;4.584;2023-03-04T10:06:05;18.60;89.00
22974;DHT22;11653;50.848;4.584;2023-03-04T10:11:33;16.80;90.40
22974;DHT22;11653;50.848;4.584;2023-03-04T10:14:03;15.60;92.20
22974;DHT22;11653;50.848;4.584;2023-03-04T10:16:39;14.60;93.80
22974;DHT22;11653;50.848;4.584;2023-03-04T10:21:42;12.80;98.20
22974;DHT22;11653;50.848;4.584;2023-03-04T10:24:18;12.10;99.90
22974;DHT22;11653;50.848;4.584;2023-03-04T10:26:46;11.40;99.90
22974;DHT22;11653;50.848;4.584;2023-03-04T10:29:16;11.10;99.90
22974;DHT22;11653;50.848;4.584;2023-03-04T10:31:42;11.00;99.90
22974;DHT22;11653;50.848;4.584;2023-03-04T10:34:13;11.00;99.90
22974;DHT22;11653;50.848;4.584;2023-03-04T10:36:59;11.00;99.90
22974;DHT22;11653;50.848;4.584;2023-03-04T10:39:26;11.00;99.90
22974;DHT22;11653;50.848;4.584;2023-03-04T10:41:59;10.70;99.90
22974;DHT22;11653;50.848;4.584;2023-03-04T10:44:26;10.40;99.90
22974;DHT22;11653;50.848;4.584;2023-03-04T10:46:54;10.30;99.90
22974;DHT22;11653;50.848;4.584;2023-03-04T10:49:20;10.20;99.90
22974;DHT22;11653;50.848;4.584;2023-03-04T10:51:49;10.10;99.90
22974;DHT22;11653;50.848;4.584;2023-03-04T11:07:40;10.60;99.90
22974;DHT22;11653;50.848;4.584;2023-03-04T11:10:17;10.60;99.90
22974;DHT22;11653;50.848;4.584;2023-03-04T11:12:52;10.60;99.90
22974;DHT22;11653;50.848;4.584;2023-03-04T11:15:22;10.80;99.90
22974;DHT22;11653;50.848;4.584;2023-03-04T11:17:55;11.00;99.90
22974;DHT22;11653;50.848;4.584;2023-03-04T11:20:40;11.20;99.90
22974;DHT22;11653;50.848;4.584;2023-03-04T11:23:19;11.50;99.90
22974;DHT22;11653;50.848;4.584;2023-03-04T11:25:55;11.80;99.90
22974;DHT22;11653;50.848;4.584;2023-03-04T11:28:51;12.20;99.90
22974;DHT22;11653;50.848;4.584;2023-03-04T11:34:57;12.50;99.90
22974;DHT22;11653;50.848;4.584;2023-03-04T11:37:26;12.60;99.90
22974;DHT22;11653;50.848;4.584;2023-03-04T11:40:02;12.40;99.90
22974;DHT22;11653;50.848;4.584;2023-03-04T11:42:45;12.10;99.90
22974;DHT22;11653;50.848;4.584;2023-03-04T11:47:59;12.00;99.90
22974;DHT22;11653;50.848;4.584;2023-03-04T11:56:34;12.00;99.90
22974;DHT22;11653;50.848;4.584;2023-03-04T12:05:11;12.00;99.90
22974;DHT22;11653;50.848;4.584;2023-03-04T12:10:21;11.70;99.90
22974;DHT22;11653;50.848;4.584;2023-03-04T12:15:55;11.50;99.90
22974;DHT22;11653;50.848;4.584;2023-03-04T12:26:50;11.00;99.90
22974;DHT22;11653;50.848;4.584;2023-03-04T12:29:40;10.90;99.90
22974;DHT22;11653;50.848;4.584;2023-03-04T12:32:39;10.70;99.90
22974;DHT22;11653;50.848;4.584;2023-03-04T12:38:24;10.40;99.90
22974;DHT22;11653;50.848;4.584;2023-03-04T12:43:40;10.40;99.90
22974;DHT22;11653;50.848;4.584;2023-03-04T12:54:40;10.20;99.90
22974;DHT22;11653;50.848;4.584;2023-03-04T12:57:15;10.40;99.90
22974;DHT22;11653;50.848;4.584;2023-03-04T13:02:43;10.50;99.90
22974;DHT22;11653;50.848;4.584;2023-03-04T13:05:30;10.50;99.90
22974;DHT22;11653;50.848;4.584;2023-03-04T13:08:15;10.50;99.90
22974;DHT22;11653;50.848;4.584;2023-03-04T13:10:45;10.60;99.90
22974;DHT22;11653;50.848;4.584;2023-03-04T13:13:59;10.60;99.90
22974;DHT22;11653;50.848;4.584;2023-03-04T13:16:31;10.70;99.90
22974;DHT22;11653;50.848;4.584;2023-03-04T13:18:58;10.60;99.90
22974;DHT22;11653;50.848;4.584;2023-03-04T13:21:27;10.50;99.90
22974;DHT22;11653;50.848;4.584;2023-03-04T13:23:54;10.30;99.90
22974;DHT22;11653;50.848;4.584;2023-03-04T13:26:28;10.20;99.90
22974;DHT22;11653;50.848;4.584;2023-03-04T13:32:04;10.40;99.90
22974;DHT22;11653;50.848;4.584;2023-03-04T13:34:48;10.50;99.90
22974;DHT22;11653;50.848;4.584;2023-03-04T13:37:34;10.60;99.90
22974;DHT22;11653;50.848;4.584;2023-03-04T13:42:45;10.60;99.90
22974;DHT22;11653;50.848;4.584;2023-03-04T13:45:36;10.70;99.90
22974;DHT22;11653;50.848;4.584;2023-03-04T13:48:07;10.90;99.90
22974;DHT22;11653;50.848;4.584;2023-03-04T13:50:47;10.80;99.90
22974;DHT22;11653;50.848;4.584;2023-03-04T13:53:42;10.80;99.90
22974;DHT22;11653;50.848;4.584;2023-03-04T13:56:38;10.80;99.90
22974;DHT22;11653;50.848;4.584;2023-03-04T14:01:31;10.70;99.90
22974;DHT22;11653;50.848;4.584;2023-03-04T14:03:58;10.50;99.90
22974;DHT22;11653;50.848;4.584;2023-03-04T14:06:29;10.50;99.90
22974;DHT22;11653;50.848;4.584;2023-03-04T14:08:56;10.40;99.90
22974;DHT22;11653;50.848;4.584;2023-03-04T14:11:31;10.40;99.90
22974;DHT22;11653;50.848;4.584;2023-03-04T14:14:02;10.30;99.90
22974;DHT22;11653;50.848;4.584;2023-03-04T14:16:33;10.10;99.90
22974;DHT22;11653;50.848;4.584;2023-03-04T14:19:04;10.10;99.90
22974;DHT22;11653;50.848;4.584;2023-03-04T14:21:31;10.10;99.90
22974;DHT22;11653;50.848;4.584;2023-03-04T14:24:03;10.20;99.90
22974;DHT22;11653;50.848;4.584;2023-03-04T14:26:30;10.20;99.90
22974;DHT22;11653;50.848;4.584;2023-03-04T14:28:56;10.30;99.90
22974;DHT22;11653;50.848;4.584;2023-03-04T14:31:25;10.40;99.90
22974;DHT22;11653;50.848;4.584;2023-03-04T14:33:56;10.30;99.90
22974;DHT22;11653;50.848;4.584;2023-03-04T14:36:29;10.40;99.90
22974;DHT22;11653;50.848;4.584;2023-03-04T14:39:00;10.30;99.90
22974;DHT22;11653;50.848;4.584;2023-03-04T14:41:32;10.40;99.90
22974;DHT22;11653;50.848;4.584;2023-03-04T14:44:05;10.40;99.90
22974;DHT22;11653;50.848;4.584;2023-03-04T14:46:39;10.20;99.90
22974;DHT22;11653;50.848;4.584;2023-03-04T14:49:11;10.10;99.90
22974;DHT22;11653;50.848;4.584;2023-03-04T14:51:52;10.10;99.90
22974;DHT22;11653;50.848;4.584;2023-03-04T14:56:55;10.30;99.90
22974;DHT22;11653;50.848;4.584;2023-03-04T14:59:31;10.30;99.90
22974;DHT22;11653;50.848;4.584;2023-03-04T15:02:37;10.20;99.90
22974;DHT22;11653;50.848;4.584;2023-03-04T15:05:10;10.20;99.90
22974;DHT22;11653;50.848;4.584;2023-03-04T15:07:40;10.30;99.90
22974;DHT22;11653;50.848;4.584;2023-03-04T15:10:10;10.30;99.90
22974;DHT22;11653;50.848;4.584;2023-03-04T15:12:37;10.50;99.90
22974;DHT22;11653;50.848;4.584;2023-03-04T15:15:31;10.60;99.90
22974;DHT22;11653;50.848;4.584;2023-03-04T15:17:59;10.70;99.90
22974;DHT22;11653;50.848;4.584;2023-03-04T15:20:27;10.70;99.90
22974;DHT22;11653;50.848;4.584;2023-03-04T15:25:19;10.60;99.90
22974;DHT22;11653;50.848;4.584;2023-03-04T15:27:46;10.60;99.90
22974;DHT22;11653;50.848;4.584;2023-03-04T15:30:15;10.50;99.90
22974;DHT22;11653;50.848;4.584;2023-03-04T15:32:41;10.30;99.90
22974;DHT22;11653;50.848;4.584;2023-03-04T15:35:15;10.40;99.90
22974;DHT22;11653;50.848;4.584;2023-03-04T15:37:42;10.40;99.90
22974;DHT22;11653;50.848;4.584;2023-03-04T15:40:25;10.30;99.90
22974;DHT22;11653;50.848;4.584;2023-03-04T15:42:51;10.10;99.90
22974;DHT22;11653;50.848;4.584;2023-03-04T15:45:32;10.10;99.90
22974;DHT22;11653;50.848;4.584;2023-03-04T15:48:01;10.10;99.90
22974;DHT22;11653;50.848;4.584;2023-03-04T15:50:34;10.10;99.90
22974;DHT22;11653;50.848;4.584;2023-03-04T15:53:02;10.00;99.90
22974;DHT22;11653;50.848;4.584;2023-03-04T15:55:30;10.10;99.90
22974;DHT22;11653;50.848;4.584;2023-03-04T15:57:57;10.10;99.90
22974;DHT22;11653;50.848;4.584;2023-03-04T16:00:24;10.00;99.90
22974;DHT22;11653;50.848;4.584;2023-03-04T16:02:50;9.90;99.90
22974;DHT22;11653;50.848;4.584;2023-03-04T16:05:16;10.00;99.90
22974;DHT22;11653;50.848;4.584;2023-03-04T16:07:44;10.00;99.90
22974;DHT22;11653;50.848;4.584;2023-03-04T16:10:21;10.00;99.90
22974;DHT22;11653;50.848;4.584;2023-03-04T16:12:48;10.00;99.90
22974;DHT22;11653;50.848;4.584;2023-03-04T16:15:20;10.00;99.90
22974;DHT22;11653;50.848;4.584;2023-03-04T16:17:46;10.00;99.90
22974;DHT22;11653;50.848;4.584;2023-03-04T16:20:14;10.00;99.90
22974;DHT22;11653;50.848;4.584;2023-03-04T16:22:41;10.00;99.90
22974;DHT22;11653;50.848;4.584;2023-03-04T16:25:12;9.90;99.90
22974;DHT22;11653;50.848;4.584;2023-03-04T16:27:39;10.00;99.90
22974;DHT22;11653;50.848;4.584;2023-03-04T16:30:07;9.90;99.90
22974;DHT22;11653;50.848;4.584;2023-03-04T16:32:33;9.90;99.90
22974;DHT22;11653;50.848;4.584;2023-03-04T16:34:59;9.80;99.90
22974;DHT22;11653;50.848;4.584;2023-03-04T16:37:24;9.80;99.90
22974;DHT22;11653;50.848;4.584;2023-03-04T16:39:50;9.70;99.90
22974;DHT22;11653;50.848;4.584;2023-03-04T16:42:18;9.70;99.90
22974;DHT22;11653;50.848;4.584;2023-03-04T16:44:50;9.70;99.90
22974;DHT22;11653;50.848;4.584;2023-03-04T16:47:15;9.80;99.90
22974;DHT22;11653;50.848;4.584;2023-03-04T16:49:41;9.70;99.90
22974;DHT22;11653;50.848;4.584;2023-03-04T16:52:24;9.70;99.90
22974;DHT22;11653;50.848;4.584;2023-03-04T16:54:50;9.80;99.90
22974;DHT22;11653;50.848;4.584;2023-03-04T16:57:16;9.60;99.90
22974;DHT22;11653;50.848;4.584;2023-03-04T16:59:41;9.60;99.90
22974;DHT22;11653;50.848;4.584;2023-03-04T17:02:19;9.60;99.90
22974;DHT22;11653;50.848;4.584;2023-03-04T17:04:47;9.60;99.90
22974;DHT22;11653;50.848;4.584;2023-03-04T17:07:13;9.60;99.90
22974;DHT22;11653;50.848;4.584;2023-03-04T17:09:39;9.60;99.90
22974;DHT22;11653;50.848;4.584;2023-03-04T17:12:06;9.60;99.90
22974;DHT22;11653;50.848;4.584;2023-03-04T17:14:33;9.60;99.90
22974;DHT22;11653;50.848;4.584;2023-03-04T17:17:01;9.60;99.90
22974;DHT22;11653;50.848;4.584;2023-03-04T17:19:28;9.70;99.90
22974;DHT22;11653;50.848;4.584;2023-03-04T17:22:00;9.60;99.90
22974;DHT22;11653;50.848;4.584;2023-03-04T17:24:26;9.50;99.90
22974;DHT22;11653;50.848;4.584;2023-03-04T17:26:52;9.60;99.90